sensor_id;sensor_type;location;lat;lon;timestamp;temperature;humidity
31263;DHT22;17892;52.080;9.006;2023-04-01T00:00:56;11.00;99.90
31263;DHT22;17892;52.080;9.006;2023-04-01T00:03:23;11.00;99.90
31263;DHT22;17892;52.080;9.006;2023-04-01T00:05:50;11.00;99.90
31263;DHT22;17892;52.080;9.006;2023-04-01T00:08:15;11.00;99.90
31263;DHT22;17892;52.080;9.006;2023-04-01T00:10:41;11.00;99.90
31263;DHT22;17892;52.080;9.006;2023-04-01T00:13:07;10.90;99.90
31263;DHT22;17892;52.080;9.006;2023-04-01T00:15:33;10.90;99.90
31263;DHT22;17892;52.080;9.006;2023-04-01T00:17:59;10.90;99.90
31263;DHT22;17892;52.080;9.006;2023-04-01T00:20:26;10.90;99.90
31263;DHT22;17892;52.080;9.006;2023-04-01T00:22:52;10.90;99.90
31263;DHT22;17892;52.080;9.006;2023-04-01T00:25:18;10.90;99.90
31263;DHT22;17892;52.080;9.006;2023-04-01T00:27:44;10.90;99.90
31263;DHT22;17892;52.080;9.006;2023-04-01T00:30:10;10.90;99.90
31263;DHT22;17892;52.080;9.006;2023-04-01T00:32:36;10.90;99.90
31263;DHT22;17892;52.080;9.006;2023-04-01T00:35:03;10.90;99.90
31263;DHT22;17892;52.080;9.006;2023-04-01T00:37:30;10.90;99.90
31263;DHT22;17892;52.080;9.006;2023-04-01T00:39:56;10.90;99.90
31263;DHT22;17892;52.080;9.006;2023-04-01T00:42:22;10.90;99.90
31263;DHT22;17892;52.080;9.006;2023-04-01T00:44:51;10.90;99.90
31263;DHT22;17892;52.080;9.006;2023-04-01T00:47:18;10.90;99.90
31263;DHT22;17892;52.080;9.006;2023-04-01T00:49:52;10.90;99.90
31263;DHT22;17892;52.080;9.006;2023-04-01T00:52:22;10.90;99.90
31263;DHT22;17892;52.080;9.006;2023-04-01T00:54:54;10.90;99.90
31263;DHT22;17892;52.080;9.006;2023-04-01T00:57:27;10.90;99.90
31263;DHT22;17892;52.080;9.006;2023-04-01T00:59:56;10.90;99.90
31263;DHT22;17892;52.080;9.006;2023-04-01T01:02:24;10.90;99.90
31263;DHT22;17892;52.080;9.006;2023-04-01T01:04:50;10.80;99.90
31263;DHT22;17892;52.080;9.006;2023-04-01T01:16:00;10.90;99.90
31263;DHT22;17892;52.080;9.006;2023-04-01T01:18:39;10.90;99.90
31263;DHT22;17892;52.080;9.006;2023-04-01T01:30:17;10.80;99.90
31263;DHT22;17892;52.080;9.006;2023-04-01T01:35:36;10.80;99.90
31263;DHT22;17892;52.080;9.006;2023-04-01T01:38:08;10.80;99.90
31263;DHT22;17892;52.080;9.006;2023-04-01T01:40:37;10.80;99.90
31263;DHT22;17892;52.080;9.006;2023-04-01T01:43:05;10.80;99.90
31263;DHT22;17892;52.080;9.006;2023-04-01T01:45:36;10.80;99.90
31263;DHT22;17892;52.080;9.006;2023-04-01T01:48:05;10.80;99.90
31263;DHT22;17892;52.080;9.006;2023-04-01T01:50:33;10.80;99.90
31263;DHT22;17892;52.080;9.006;2023-04-01T01:53:07;10.80;99.90
31263;DHT22;17892;52.080;9.006;2023-04-01T01:55:37;10.80;99.90
31263;DHT22;17892;52.080;9.006;2023-04-01T02:00:59;10.80;99.90
31263;DHT22;17892;52.080;9.006;2023-04-01T02:03:30;10.80;99.90
31263;DHT22;17892;52.080;9.006;2023-04-01T02:06:01;10.80;99.90
31263;DHT22;17892;52.080;9.006;2023-04-01T02:08:44;10.80;99.90
31263;DHT22;17892;52.080;9.006;2023-04-01T02:11:15;10.80;99.90
31263;DHT22;17892;52.080;9.006;2023-04-01T02:13:55;10.80;99.90
31263;DHT22;17892;52.080;9.006;2023-04-01T02:16:39;10.80;99.90
31263;DHT22;17892;52.080;9.006;2023-04-01T02:19:09;10.80;99.90
31263;DHT22;17892;52.080;9.006;2023-04-01T02:21:36;10.70;99.90
31263;DHT22;17892;52.080;9.006;2023-04-01T02:24:07;10.70;99.90
31263;DHT22;17892;52.080;9.006;2023-04-01T02:26:34;10.70;99.90
31263;DHT22;17892;52.080;9.006;2023-04-01T02:29:01;10.70;99.90
31263;DHT22;17892;52.080;9.006;2023-04-01T02:31:29;10.70;99.90
31263;DHT22;17892;52.080;9.006;2023-04-01T02:33:56;10.70;99.90
31263;DHT22;17892;52.080;9.006;2023-04-01T02:36:22;10.70;99.90
31263;DHT22;17892;52.080;9.006;2023-04-01T02:38:49;10.70;99.90
31263;DHT22;17892;52.080;9.006;2023-04-01T02:41:16;10.70;99.90
31263;DHT22;17892;52.080;9.006;2023-04-01T02:43:42;10.70;99.90
31263;DHT22;17892;52.080;9.006;2023-04-01T02:46:07;10.70;99.90
31263;DHT22;17892;52.080;9.006;2023-04-01T02:48:33;10.60;99.90
31263;DHT22;17892;52.080;9.006;2023-04-01T02:50:59;10.60;99.90
31263;DHT22;17892;52.080;9.006;2023-04-01T02:53:25;10.60;99.90
31263;DHT22;17892;52.080;9.006;2023-04-01T02:55:50;10.60;99.90
31263;DHT22;17892;52.080;9.006;2023-04-01T02:58:17;10.60;99.90
31263;DHT22;17892;52.080;9.006;2023-04-01T03:00:43;10.60;99.90
31263;DHT22;17892;52.080;9.006;2023-04-01T03:03:09;10.60;99.90
31263;DHT22;17892;52.080;9.006;2023-04-01T03:05:35;10.60;99.90
31263;DHT22;17892;52.080;9.006;2023-04-01T03:08:02;10.60;99.90
31263;DHT22;17892;52.080;9.006;2023-04-01T03:10:27;10.60;99.90
31263;DHT22;17892;52.080;9.006;2023-04-01T03:12:53;10.60;99.90
31263;DHT22;17892;52.080;9.006;2023-04-01T03:15:19;10.60;99.90
31263;DHT22;17892;52.080;9.006;2023-04-01T03:17:45;10.60;99.90
31263;DHT22;17892;52.080;9.006;2023-04-01T03:20:12;10.60;99.90
31263;DHT22;17892;52.080;9.006;2023-04-01T03:22:39;10.50;99.90
31263;DHT22;17892;52.080;9.006;2023-04-01T03:25:06;10.60;99.90
31263;DHT22;17892;52.080;9.006;2023-04-01T03:27:33;10.60;99.90
31263;DHT22;17892;52.080;9.006;2023-04-01T03:30:01;10.60;99.90
31263;DHT22;17892;52.080;9.006;2023-04-01T03:32:28;10.60;99.90
31263;DHT22;17892;52.080;9.006;2023-04-01T03:34:54;10.60;99.90
31263;DHT22;17892;52.080;9.006;2023-04-01T03:37:19;10.60;99.90
31263;DHT22;17892;52.080;9.006;2023-04-01T03:39:45;10.60;99.90
31263;DHT22;17892;52.080;9.006;2023-04-01T03:42:12;10.60;99.90
31263;DHT22;17892;52.080;9.006;2023-04-01T03:44:37;10.60;99.90
31263;DHT22;17892;52.080;9.006;2023-04-01T03:47:03;10.60;99.90
31263;DHT22;17892;52.080;9.006;2023-04-01T03:49:29;10.60;99.90
31263;DHT22;17892;52.080;9.006;2023-04-01T03:51:54;10.50;99.90
31263;DHT22;17892;52.080;9.006;2023-04-01T03:54:20;10.60;99.90
31263;DHT22;17892;52.080;9.006;2023-04-01T03:56:46;10.60;99.90
31263;DHT22;17892;52.080;9.006;2023-04-01T03:59:12;10.60;99.90
31263;DHT22;17892;52.080;9.006;2023-04-01T04:01:38;10.60;99.90
31263;DHT22;17892;52.080;9.006;2023-04-01T04:04:04;10.60;99.90
31263;DHT22;17892;52.080;9.006;2023-04-01T04:06:30;10.60;99.90
31263;DHT22;17892;52.080;9.006;2023-04-01T04:08:56;10.60;99.90
31263;DHT22;17892;52.080;9.006;2023-04-01T04:11:22;10.60;99.90
31263;DHT22;17892;52.080;9.006;2023-04-01T04:13:48;10.50;99.90
31263;DHT22;17892;52.080;9.006;2023-04-01T04:16:15;10.60;99.90
31263;DHT22;17892;52.080;9.006;2023-04-01T04:18:42;10.50;99.90
31263;DHT22;17892;52.080;9.006;2023-04-01T04:21:12;10.60;99.90
31263;DHT22;17892;52.080;9.006;2023-04-01T04:23:39;10.60;99.90
31263;DHT22;17892;52.080;9.006;2023-04-01T04:26:10;10.60;99.90
31263;DHT22;17892;52.080;9.006;2023-04-01T04:28:37;10.60;99.90
31263;DHT22;17892;52.080;9.006;2023-04-01T04:31:03;10.60;99.90
31263;DHT22;17892;52.080;9.006;2023-04-01T04:33:30;10.60;99.90
31263;DHT22;17892;52.080;9.006;2023-04-01T04:35:57;10.50;99.90
31263;DHT22;17892;52.080;9.006;2023-04-01T04:38:24;10.60;99.90
31263;DHT22;17892;52.080;9.006;2023-04-01T04:40:50;10.60;99.90
31263;DHT22;17892;52.080;9.006;2023-04-01T04:43:17;10.60;99.90
31263;DHT22;17892;52.080;9.006;2023-04-01T04:45:43;10.60;99.90
31263;DHT22;17892;52.080;9.006;2023-04-01T04:48:10;10.50;99.90
31263;DHT22;17892;52.080;9.006;2023-04-01T04:50:42;10.60;99.90
31263;DHT22;17892;52.080;9.006;2023-04-01T04:53:12;10.60;99.90
31263;DHT22;17892;52.080;9.006;2023-04-01T04:55:43;10.60;99.90
31263;DHT22;17892;52.080;9.006;2023-04-01T04:58:12;10.60;99.90
31263;DHT22;17892;52.080;9.006;2023-04-01T05:00:38;10.50;99.90
31263;DHT22;17892;52.080;9.006;2023-04-01T05:03:04;10.60;99.90
31263;DHT22;17892;52.080;9.006;2023-04-01T05:05:30;10.60;99.90
31263;DHT22;17892;52.080;9.006;2023-04-01T05:07:55;10.60;99.90
31263;DHT22;17892;52.080;9.006;2023-04-01T05:10:21;10.60;99.90
31263;DHT22;17892;52.080;9.006;2023-04-01T05:12:47;10.60;99.90
31263;DHT22;17892;52.080;9.006;2023-04-01T05:15:12;10.60;99.90
31263;DHT22;17892;52.080;9.006;2023-04-01T05:17:39;10.60;99.90
31263;DHT22;17892;52.080;9.006;2023-04-01T05:20:05;10.60;99.90
31263;DHT22;17892;52.080;9.006;2023-04-01T05:22:32;10.60;99.90
31263;DHT22;17892;52.080;9.006;2023-04-01T05:24:57;10.50;99.90
31263;DHT22;17892;52.080;9.006;2023-04-01T05:27:23;10.60;99.90
31263;DHT22;17892;52.080;9.006;2023-04-01T05:29:49;10.60;99.90
31263;DHT22;17892;52.080;9.006;2023-04-01T05:32:14;10.50;99.90
31263;DHT22;17892;52.080;9.006;2023-04-01T05:34:40;10.60;99.90
31263;DHT22;17892;52.080;9.006;2023-04-01T05:37:06;10.60;99.90
31263;DHT22;17892;52.080;9.006;2023-04-01T05:39:36;10.60;99.90
31263;DHT22;17892;52.080;9.006;2023-04-01T05:42:04;10.60;99.90
31263;DHT22;17892;52.080;9.006;2023-04-01T05:44:31;10.60;99.90
31263;DHT22;17892;52.080;9.006;2023-04-01T05:46:57;10.60;99.90
31263;DHT22;17892;52.080;9.006;2023-04-01T05:49:22;10.60;99.90
31263;DHT22;17892;52.080;9.006;2023-04-01T05:51:48;10.60;99.90
31263;DHT22;17892;52.080;9.006;2023-04-01T05:54:14;10.60;99.90
31263;DHT22;17892;52.080;9.006;2023-04-01T05:56:39;10.70;99.90
31263;DHT22;17892;52.080;9.006;2023-04-01T05:59:05;10.60;99.90
31263;DHT22;17892;52.080;9.006;2023-04-01T06:01:31;10.70;99.90
31263;DHT22;17892;52.080;9.006;2023-04-01T06:03:57;10.70;99.90
31263;DHT22;17892;52.080;9.006;2023-04-01T06:06:27;10.70;99.90
31263;DHT22;17892;52.080;9.006;2023-04-01T06:08:57;10.80;99.90
31263;DHT22;17892;52.080;9.006;2023-04-01T06:11:42;10.80;99.90
31263;DHT22;17892;52.080;9.006;2023-04-01T06:17:59;10.90;99.90
31263;DHT22;17892;52.080;9.006;2023-04-01T06:26:34;10.90;99.90
31263;DHT22;17892;52.080;9.006;2023-04-01T06:29:18;10.90;99.90
31263;DHT22;17892;52.080;9.006;2023-04-01T06:38:06;10.90;99.90
31263;DHT22;17892;52.080;9.006;2023-04-01T06:41:04;10.80;99.90
31263;DHT22;17892;52.080;9.006;2023-04-01T06:47:14;10.80;99.90
31263;DHT22;17892;52.080;9.006;2023-04-01T06:55:25;10.80;99.90
31263;DHT22;17892;52.080;9.006;2023-04-01T06:57:57;10.80;99.90
31263;DHT22;17892;52.080;9.006;2023-04-01T07:00:31;10.80;99.90
31263;DHT22;17892;52.080;9.006;2023-04-01T07:05:57;10.80;99.90
31263;DHT22;17892;52.080;9.006;2023-04-01T07:08:26;10.90;99.90
31263;DHT22;17892;52.080;9.006;2023-04-01T07:13:41;10.90;99.90
31263;DHT22;17892;52.080;9.006;2023-04-01T07:19:35;11.00;99.90
31263;DHT22;17892;52.080;9.006;2023-04-01T07:22:29;11.10;99.90
31263;DHT22;17892;52.080;9.006;2023-04-01T07:25:10;11.10;99.90
31263;DHT22;17892;52.080;9.006;2023-04-01T07:27:37;11.10;99.90
31263;DHT22;17892;52.080;9.006;2023-04-01T07:30:20;11.10;99.90
31263;DHT22;17892;52.080;9.006;2023-04-01T07:33:49;11.20;99.90
31263;DHT22;17892;52.080;9.006;2023-04-01T07:39:24;11.30;99.90
31263;DHT22;17892;52.080;9.006;2023-04-01T07:42:09;11.30;99.90
31263;DHT22;17892;52.080;9.006;2023-04-01T07:50:32;11.30;99.90
31263;DHT22;17892;52.080;9.006;2023-04-01T08:02:28;11.50;99.90
31263;DHT22;17892;52.080;9.006;2023-04-01T08:05:33;11.60;99.90
31263;DHT22;17892;52.080;9.006;2023-04-01T08:11:28;11.70;99.90
31263;DHT22;17892;52.080;9.006;2023-04-01T08:17:40;11.90;99.90
31263;DHT22;17892;52.080;9.006;2023-04-01T08:20:39;12.00;99.90
31263;DHT22;17892;52.080;9.006;2023-04-01T08:23:32;12.00;99.90
31263;DHT22;17892;52.080;9.006;2023-04-01T08:26:04;12.00;99.90
31263;DHT22;17892;52.080;9.006;2023-04-01T08:28:41;12.10;99.90
31263;DHT22;17892;52.080;9.006;2023-04-01T08:34:23;12.10;99.90
31263;DHT22;17892;52.080;9.006;2023-04-01T08:37:17;12.10;99.90
31263;DHT22;17892;52.080;9.006;2023-04-01T08:43:36;12.10;99.90
31263;DHT22;17892;52.080;9.006;2023-04-01T08:46:35;12.10;99.90
31263;DHT22;17892;52.080;9.006;2023-04-01T08:49:17;12.10;99.90
31263;DHT22;17892;52.080;9.006;2023-04-01T08:52:22;12.10;99.90
31263;DHT22;17892;52.080;9.006;2023-04-01T08:55:15;12.10;99.90
31263;DHT22;17892;52.080;9.006;2023-04-01T09:03:22;12.20;99.90
31263;DHT22;17892;52.080;9.006;2023-04-01T09:06:26;12.20;99.90
31263;DHT22;17892;52.080;9.006;2023-04-01T09:09:28;12.20;99.90
31263;DHT22;17892;52.080;9.006;2023-04-01T09:15:42;12.20;99.90
31263;DHT22;17892;52.080;9.006;2023-04-01T09:18:35;12.30;99.90
31263;DHT22;17892;52.080;9.006;2023-04-01T09:22:32;12.30;99.90
31263;DHT22;17892;52.080;9.006;2023-04-01T09:39:18;12.70;99.90
31263;DHT22;17892;52.080;9.006;2023-04-01T09:42:35;12.70;99.90
31263;DHT22;17892;52.080;9.006;2023-04-01T09:48:14;12.70;99.90
31263;DHT22;17892;52.080;9.006;2023-04-01T10:15:12;12.70;99.90
31263;DHT22;17892;52.080;9.006;2023-04-01T10:21:25;12.80;99.90
31263;DHT22;17892;52.080;9.006;2023-04-01T10:26:59;12.90;99.90
31263;DHT22;17892;52.080;9.006;2023-04-01T10:29:52;12.90;99.90
31263;DHT22;17892;52.080;9.006;2023-04-01T10:35:14;13.00;99.90
31263;DHT22;17892;52.080;9.006;2023-04-01T10:56:55;13.50;99.90
31263;DHT22;17892;52.080;9.006;2023-04-01T11:08:49;14.60;99.90
31263;DHT22;17892;52.080;9.006;2023-04-01T11:22:07;15.50;99.90
31263;DHT22;17892;52.080;9.006;2023-04-01T11:45:35;15.60;99.90
31263;DHT22;17892;52.080;9.006;2023-04-01T11:51:48;15.40;99.90
31263;DHT22;17892;52.080;9.006;2023-04-01T12:00:21;14.90;99.90
31263;DHT22;17892;52.080;9.006;2023-04-01T12:15:11;13.50;99.90
31263;DHT22;17892;52.080;9.006;2023-04-01T12:18:50;13.30;99.90
31263;DHT22;17892;52.080;9.006;2023-04-01T12:21:36;13.20;99.90
31263;DHT22;17892;52.080;9.006;2023-04-01T12:30:00;12.90;99.90
31263;DHT22;17892;52.080;9.006;2023-04-01T12:32:57;12.90;99.90
31263;DHT22;17892;52.080;9.006;2023-04-01T12:46:59;12.80;99.90
31263;DHT22;17892;52.080;9.006;2023-04-01T12:49:53;12.80;99.90
31263;DHT22;17892;52.080;9.006;2023-04-01T12:53:41;12.80;99.90
31263;DHT22;17892;52.080;9.006;2023-04-01T12:55:44;12.90;99.90
31263;DHT22;17892;52.080;9.006;2023-04-01T12:58:37;13.00;99.90
31263;DHT22;17892;52.080;9.006;2023-04-01T13:04:35;13.00;99.90
31263;DHT22;17892;52.080;9.006;2023-04-01T13:10:13;13.20;99.90
31263;DHT22;17892;52.080;9.006;2023-04-01T13:13:21;13.30;99.90
31263;DHT22;17892;52.080;9.006;2023-04-01T13:21:42;13.50;99.90
31263;DHT22;17892;52.080;9.006;2023-04-01T13:24:41;13.70;99.90
31263;DHT22;17892;52.080;9.006;2023-04-01T13:27:37;13.80;99.90
31263;DHT22;17892;52.080;9.006;2023-04-01T13:30:26;13.90;99.90
31263;DHT22;17892;52.080;9.006;2023-04-01T13:39:29;14.20;99.90
31263;DHT22;17892;52.080;9.006;2023-04-01T13:53:22;14.20;99.90
31263;DHT22;17892;52.080;9.006;2023-04-01T13:56:24;14.20;99.90
31263;DHT22;17892;52.080;9.006;2023-04-01T13:59:25;14.20;99.90
31263;DHT22;17892;52.080;9.006;2023-04-01T14:05:07;14.30;99.90
31263;DHT22;17892;52.080;9.006;2023-04-01T14:11:02;14.20;99.90
31263;DHT22;17892;52.080;9.006;2023-04-01T14:13:53;14.10;99.90
31263;DHT22;17892;52.080;9.006;2023-04-01T14:22:33;13.70;99.90
31263;DHT22;17892;52.080;9.006;2023-04-01T14:25:36;13.60;99.90
31263;DHT22;17892;52.080;9.006;2023-04-01T14:31:55;13.40;99.90
31263;DHT22;17892;52.080;9.006;2023-04-01T14:35:11;13.40;99.90
31263;DHT22;17892;52.080;9.006;2023-04-01T14:49:50;13.10;99.90
31263;DHT22;17892;52.080;9.006;2023-04-01T14:52:28;13.00;99.90
31263;DHT22;17892;52.080;9.006;2023-04-01T14:55:00;13.00;99.90
31263;DHT22;17892;52.080;9.006;2023-04-01T14:57:29;12.90;99.90
31263;DHT22;17892;52.080;9.006;2023-04-01T15:00:13;12.90;99.90
31263;DHT22;17892;52.080;9.006;2023-04-01T15:03:04;12.80;99.90
31263;DHT22;17892;52.080;9.006;2023-04-01T15:11:54;12.70;99.90
31263;DHT22;17892;52.080;9.006;2023-04-01T15:17:31;12.70;99.90
31263;DHT22;17892;52.080;9.006;2023-04-01T15:26:00;12.80;99.90
31263;DHT22;17892;52.080;9.006;2023-04-01T15:29:04;12.80;99.90
31263;DHT22;17892;52.080;9.006;2023-04-01T15:32:13;12.80;99.90
31263;DHT22;17892;52.080;9.006;2023-04-01T15:35:13;12.80;99.90
31263;DHT22;17892;52.080;9.006;2023-04-01T15:41:14;12.70;99.90
31263;DHT22;17892;52.080;9.006;2023-04-01T15:43:48;12.70;99.90
31263;DHT22;17892;52.080;9.006;2023-04-01T15:56:28;12.60;99.90
31263;DHT22;17892;52.080;9.006;2023-04-01T16:04:58;12.70;99.90
31263;DHT22;17892;52.080;9.006;2023-04-01T16:21:43;12.60;99.90
31263;DHT22;17892;52.080;9.006;2023-04-01T16:24:17;12.60;99.90
31263;DHT22;17892;52.080;9.006;2023-04-01T16:30:36;12.60;99.90
31263;DHT22;17892;52.080;9.006;2023-04-01T16:33:21;12.60;99.90
31263;DHT22;17892;52.080;9.006;2023-04-01T16:41:49;12.50;99.90
31263;DHT22;17892;52.080;9.006;2023-04-01T16:44:25;12.50;99.90
31263;DHT22;17892;52.080;9.006;2023-04-01T16:46:54;12.40;99.90
31263;DHT22;17892;52.080;9.006;2023-04-01T16:49:29;12.30;99.90
31263;DHT22;17892;52.080;9.006;2023-04-01T16:52:13;12.30;99.90
31263;DHT22;17892;52.080;9.006;2023-04-01T16:54:53;12.20;99.90
31263;DHT22;17892;52.080;9.006;2023-04-01T16:57:52;12.10;99.90
31263;DHT22;17892;52.080;9.006;2023-04-01T17:00:30;12.00;99.90
31263;DHT22;17892;52.080;9.006;2023-04-01T17:11:30;11.40;99.90
31263;DHT22;17892;52.080;9.006;2023-04-01T17:19:59;11.00;99.90
31263;DHT22;17892;52.080;9.006;2023-04-01T17:23:01;11.00;99.90
31263;DHT22;17892;52.080;9.006;2023-04-01T17:31:41;10.80;99.90
31263;DHT22;17892;52.080;9.006;2023-04-01T17:34:31;10.70;99.90
31263;DHT22;17892;52.080;9.006;2023-04-01T17:45:57;10.40;99.90
31263;DHT22;17892;52.080;9.006;2023-04-01T17:55:15;10.20;99.90
31263;DHT22;17892;52.080;9.006;2023-04-01T18:06:56;10.00;99.90
31263;DHT22;17892;52.080;9.006;2023-04-01T18:09:56;10.00;99.90
31263;DHT22;17892;52.080;9.006;2023-04-01T18:13:09;10.00;99.90
31263;DHT22;17892;52.080;9.006;2023-04-01T18:21:53;9.80;99.90
31263;DHT22;17892;52.080;9.006;2023-04-01T18:24:42;9.70;99.90
31263;DHT22;17892;52.080;9.006;2023-04-01T18:27:18;9.70;99.90
31263;DHT22;17892;52.080;9.006;2023-04-01T18:30:18;9.60;99.90
31263;DHT22;17892;52.080;9.006;2023-04-01T18:33:26;9.50;99.90
31263;DHT22;17892;52.080;9.006;2023-04-01T18:36:23;9.50;99.90
31263;DHT22;17892;52.080;9.006;2023-04-01T18:44:53;9.30;99.90
31263;DHT22;17892;52.080;9.006;2023-04-01T18:50:57;9.30;99.90
31263;DHT22;17892;52.080;9.006;2023-04-01T18:53:48;9.20;99.90
31263;DHT22;17892;52.080;9.006;2023-04-01T18:56:35;9.10;99.90
31263;DHT22;17892;52.080;9.006;2023-04-01T19:20:52;8.90;99.90
31263;DHT22;17892;52.080;9.006;2023-04-01T19:23:52;8.90;99.90
31263;DHT22;17892;52.080;9.006;2023-04-01T19:32:32;8.80;99.90
31263;DHT22;17892;52.080;9.006;2023-04-01T19:35:32;8.80;99.90
31263;DHT22;17892;52.080;9.006;2023-04-01T19:38:30;8.80;99.90
31263;DHT22;17892;52.080;9.006;2023-04-01T19:46:44;8.50;99.90
31263;DHT22;17892;52.080;9.006;2023-04-01T19:52:04;8.40;99.90
31263;DHT22;17892;52.080;9.006;2023-04-01T20:00:30;8.30;99.90
31263;DHT22;17892;52.080;9.006;2023-04-01T20:06:02;8.00;99.90
31263;DHT22;17892;52.080;9.006;2023-04-01T20:09:06;8.10;99.90
31263;DHT22;17892;52.080;9.006;2023-04-01T20:20:00;8.00;99.90
31263;DHT22;17892;52.080;9.006;2023-04-01T20:25:26;7.90;99.90
31263;DHT22;17892;52.080;9.006;2023-04-01T20:28:13;7.90;99.90
31263;DHT22;17892;52.080;9.006;2023-04-01T20:31:20;7.90;99.90
31263;DHT22;17892;52.080;9.006;2023-04-01T20:42:26;7.80;99.90
31263;DHT22;17892;52.080;9.006;2023-04-01T20:51:18;7.80;99.90
31263;DHT22;17892;52.080;9.006;2023-04-01T20:54:24;7.70;99.90
31263;DHT22;17892;52.080;9.006;2023-04-01T20:57:13;7.70;99.90
31263;DHT22;17892;52.080;9.006;2023-04-01T21:00:19;7.60;99.90
31263;DHT22;17892;52.080;9.006;2023-04-01T21:09:03;7.50;99.90
31263;DHT22;17892;52.080;9.006;2023-04-01T21:11:51;7.40;99.90
31263;DHT22;17892;52.080;9.006;2023-04-01T21:17:49;7.40;99.90
31263;DHT22;17892;52.080;9.006;2023-04-01T21:26:08;7.30;99.90
31263;DHT22;17892;52.080;9.006;2023-04-01T21:28:50;7.20;99.90
31263;DHT22;17892;52.080;9.006;2023-04-01T21:37:56;7.10;99.90
31263;DHT22;17892;52.080;9.006;2023-04-01T21:43:43;7.00;99.90
31263;DHT22;17892;52.080;9.006;2023-04-01T21:46:45;7.20;99.90
31263;DHT22;17892;52.080;9.006;2023-04-01T21:56:35;7.00;99.90
31263;DHT22;17892;52.080;9.006;2023-04-01T22:05:10;6.90;99.90
31263;DHT22;17892;52.080;9.006;2023-04-01T22:08:02;6.90;99.90
31263;DHT22;17892;52.080;9.006;2023-04-01T22:13:35;6.80;99.90
31263;DHT22;17892;52.080;9.006;2023-04-01T22:19:00;6.60;99.90
31263;DHT22;17892;52.080;9.006;2023-04-01T22:21:49;6.60;99.90
31263;DHT22;17892;52.080;9.006;2023-04-01T22:27:17;6.60;99.90
31263;DHT22;17892;52.080;9.006;2023-04-01T22:30:05;6.60;99.90
31263;DHT22;17892;52.080;9.006;2023-04-01T22:32:52;6.60;99.90
31263;DHT22;17892;52.080;9.006;2023-04-01T22:50:50;6.40;99.90
31263;DHT22;17892;52.080;9.006;2023-04-01T22:56:40;6.40;99.90
31263;DHT22;17892;52.080;9.006;2023-04-01T22:59:19;6.30;99.90
31263;DHT22;17892;52.080;9.006;2023-04-01T23:02:09;6.20;99.90
31263;DHT22;17892;52.080;9.006;2023-04-01T23:04:58;6.20;99.90
31263;DHT22;17892;52.080;9.006;2023-04-01T23:07:50;6.20;99.90
31263;DHT22;17892;52.080;9.006;2023-04-01T23:13:11;6.10;99.90
31263;DHT22;17892;52.080;9.006;2023-04-01T23:15:42;6.10;99.90
31263;DHT22;17892;52.080;9.006;2023-04-01T23:18:19;6.10;99.90
31263;DHT22;17892;52.080;9.006;2023-04-01T23:21:06;6.00;99.90
31263;DHT22;17892;52.080;9.006;2023-04-01T23:23:48;6.00;99.90
31263;DHT22;17892;52.080;9.006;2023-04-01T23:26:25;6.00;99.90
31263;DHT22;17892;52.080;9.006;2023-04-01T23:29:12;6.00;99.90
31263;DHT22;17892;52.080;9.006;2023-04-01T23:31:43;6.00;99.90
31263;DHT22;17892;52.080;9.006;2023-04-01T23:36:50;6.10;99.90
31263;DHT22;17892;52.080;9.006;2023-04-01T23:41:48;6.10;99.90
31263;DHT22;17892;52.080;9.006;2023-04-01T23:44:16;6.10;99.90
31263;DHT22;17892;52.080;9.006;2023-04-01T23:46:44;6.10;99.90
31263;DHT22;17892;52.080;9.006;2023-04-01T23:49:16;6.10;99.90
31263;DHT22;17892;52.080;9.006;2023-04-01T23:52:14;6.10;99.90
31263;DHT22;17892;52.080;9.006;2023-04-01T23:54:53;6.10;99.90
31263;DHT22;17892;52.080;9.006;2023-04-01T23:57:30;6.10;99.90
